Terminal Aerodrome Forecast
Issued by NWS

Home | Current Version | Previous Version | Graphics & Text | Print | Product List | Glossary On
Versions: 1 2 3 4 5 6 7 8 9 10 11 12 13 14 15 16
000
FTUS42 KMHX 300536
TAFPGV
TAF
KPGV 300536Z 3006/3106 VRB04KT P6SM FEW040 SCT100
     FM300800 VRB03KT 5SM BR SCT007 BKN020
     FM301300 05008KT P6SM BKN040
      AMD LTD TO CLD VIS AND WIND=

USA.gov is the U.S. government's official web portal to all federal, state and local government web resources and services.